Time;durP1;ratioP1;P1;durP2;ratioP2;P2;SDS_P1;SDS_P2;PMS_P1;PMS_P2;Temp;Humidity;BMP_temperature;BMP_pressure;BME280_temperature;BME280_humidity;BME280_pressure;Samples;Min_cycle;Max_cycle;Signal;HPM_P1;HPM_P2
2023/08/07 00:02:23;;;;;;;5.55;3.33;;;11.90;99.90;;;12.28;100.00;97697.25;10435756;28;20233;-66
2023/08/07 00:07:26;;;;;;;3.03;2.70;;;11.90;99.90;;;12.29;100.00;97696.44;10439984;28;20339;-65
2023/08/07 00:12:31;;;;;;;3.65;2.88;;;11.90;99.90;;;12.22;100.00;97704.59;10431702;28;20243;-66
2023/08/07 00:17:34;;;;;;;3.58;3.10;;;11.90;99.90;;;12.24;100.00;97713.25;10426666;28;20716;-66
2023/08/07 00:22:37;;;;;;;4.38;3.40;;;11.90;99.90;;;12.21;100.00;97702.88;10422956;28;20315;-66
2023/08/07 00:27:42;;;;;;;3.78;2.70;;;11.80;99.90;;;12.34;100.00;97707.78;10424089;28;20255;-67
2023/08/07 00:32:45;;;;;;;4.75;3.47;;;11.90;99.90;;;12.31;100.00;97712.75;10440846;28;20230;-66
2023/08/07 00:37:48;;;;;;;3.65;3.25;;;11.90;99.90;;;12.26;100.00;97701.41;10435942;28;20264;-66
2023/08/07 00:42:53;;;;;;;6.32;3.63;;;11.80;99.90;;;12.29;100.00;97709.25;10434338;28;20232;-66
2023/08/07 00:47:56;;;;;;;3.90;3.42;;;11.90;99.90;;;12.13;100.00;97716.19;10447888;28;20229;-65
2023/08/07 00:52:59;;;;;;;4.45;3.22;;;11.80;99.90;;;12.22;100.00;97720.00;10442535;28;20319;-66
2023/08/07 00:58:04;;;;;;;4.13;3.38;;;11.80;99.90;;;12.25;100.00;97712.47;10438468;28;20225;-66
2023/08/07 01:03:07;;;;;;;4.68;3.45;;;11.80;99.90;;;12.14;100.00;97712.81;10449753;28;20231;-66
2023/08/07 01:08:11;;;;;;;5.43;3.10;;;11.70;99.90;;;12.05;100.00;97722.63;10445960;28;20266;-66
2023/08/07 01:13:25;;;;;;;4.07;3.17;;;11.70;99.90;;;12.09;100.00;97721.09;10444980;28;20319;-66
2023/08/07 01:18:29;;;;;;;4.95;3.10;;;11.70;99.90;;;12.04;100.00;97715.72;10436523;28;20724;-66
2023/08/07 01:23:33;;;;;;;5.78;3.28;;;11.70;99.90;;;12.12;100.00;97723.81;10445290;28;20236;-66
2023/08/07 01:28:42;;;;;;;4.95;3.63;;;11.60;99.90;;;12.05;100.00;97714.06;10430158;28;20228;-67
2023/08/07 01:33:56;;;;;;;4.53;3.40;;;11.60;99.90;;;12.02;100.00;97716.44;10442221;28;20247;-67
2023/08/07 01:39:04;;;;;;;8.00;3.80;;;11.60;99.90;;;12.05;100.00;97714.94;10430456;28;20237;-67
2023/08/07 01:44:07;;;;;;;5.38;3.38;;;11.60;99.90;;;11.93;100.00;97711.75;10446824;28;20699;-67
2023/08/07 01:49:10;;;;;;;6.57;4.10;;;11.60;99.90;;;11.90;100.00;97717.63;10444764;28;20734;-67
2023/08/07 01:54:14;;;;;;;4.00;3.42;;;11.60;99.90;;;11.97;100.00;97723.94;10440335;28;20225;-66
2023/08/07 01:59:17;;;;;;;5.15;3.05;;;11.60;99.90;;;12.01;100.00;97719.84;10447844;28;20237;-67
2023/08/07 02:04:20;;;;;;;5.60;3.63;;;11.60;99.90;;;12.04;100.00;97730.22;10437834;28;20225;-66
2023/08/07 02:09:25;;;;;;;4.65;3.35;;;11.60;99.90;;;12.11;100.00;97728.06;10438130;28;20236;-67
2023/08/07 02:14:28;;;;;;;4.93;3.28;;;11.70;99.90;;;12.03;100.00;97734.47;10435973;28;20228;-67
2023/08/07 02:19:31;;;;;;;4.13;3.38;;;11.60;99.90;;;12.06;100.00;97729.50;10443399;28;20255;-67
2023/08/07 02:24:36;;;;;;;3.67;3.33;;;11.60;99.90;;;12.00;100.00;97734.31;10436681;28;20233;-67
2023/08/07 02:29:39;;;;;;;3.92;3.45;;;11.60;99.90;;;12.04;100.00;97740.47;10442541;28;20228;-67
2023/08/07 02:34:42;;;;;;;4.07;3.55;;;11.60;99.90;;;12.08;100.00;97738.16;10433086;28;20426;-67
2023/08/07 02:39:47;;;;;;;5.28;3.40;;;11.60;99.90;;;12.04;100.00;97741.34;10426695;28;20236;-67
2023/08/07 02:44:50;;;;;;;3.40;3.20;;;11.60;99.90;;;12.12;100.00;97740.03;10440003;28;20613;-65
2023/08/07 02:49:53;;;;;;;4.22;3.03;;;11.70;99.90;;;11.99;100.00;97747.94;10438996;28;20795;-66
2023/08/07 02:54:58;;;;;;;4.35;3.20;;;11.60;99.90;;;12.06;100.00;97760.25;10432600;28;20217;-66
2023/08/07 03:00:01;;;;;;;5.60;2.72;;;11.60;99.90;;;12.11;100.00;97752.78;10440364;28;20247;-66
2023/08/07 03:05:05;;;;;;;4.70;3.35;;;11.70;99.90;;;11.99;100.00;97758.19;10434263;28;20656;-66
2023/08/07 03:10:10;;;;;;;4.78;3.22;;;11.70;99.90;;;12.15;100.00;97765.81;10431115;28;20324;-67
2023/08/07 03:15:13;;;;;;;4.03;3.63;;;11.70;99.90;;;12.10;100.00;97767.28;10438651;28;20712;-66
2023/08/07 03:20:16;;;;;;;3.65;2.70;;;11.70;99.90;;;12.12;100.00;97760.53;10440299;28;20719;-66
2023/08/07 03:25:22;;;;;;;5.20;3.13;;;11.70;99.90;;;12.04;100.00;97766.97;10443809;28;20789;-66
2023/08/07 03:30:25;;;;;;;3.97;3.28;;;11.70;99.90;;;11.84;100.00;97776.19;10435052;28;20317;-67
2023/08/07 03:35:30;;;;;;;4.78;3.45;;;11.50;99.90;;;11.92;100.00;97776.59;10431257;28;20236;-67
2023/08/07 03:40:35;;;;;;;4.72;3.40;;;11.50;99.90;;;11.97;100.00;97775.16;10436630;28;20245;-66
2023/08/07 03:45:40;;;;;;;4.68;3.20;;;11.50;99.90;;;11.87;100.00;97772.94;10441685;28;20244;-66
2023/08/07 03:50:43;;;;;;;6.75;3.63;;;11.50;99.90;;;12.01;100.00;97795.00;10436112;28;20220;-66
2023/08/07 03:55:52;;;;;;;5.00;3.53;;;11.60;99.90;;;12.02;100.00;97789.09;10429764;28;20225;-66
2023/08/07 04:00:56;;;;;;;4.55;3.25;;;11.60;99.90;;;12.02;100.00;97799.34;10437456;28;20228;-65
2023/08/07 04:06:00;;;;;;;5.07;3.38;;;11.70;99.90;;;11.84;100.00;97801.78;10429621;28;20660;-67
2023/08/07 04:11:07;;;;;;;4.22;3.42;;;11.50;99.90;;;11.92;100.00;97807.34;10486916;22;20569;-65
2023/08/07 04:16:10;;;;;;;3.78;3.08;;;11.50;99.90;;;12.01;100.00;97820.59;10475169;28;20228;-62
2023/08/07 04:21:13;;;;;;;3.90;3.40;;;11.60;99.90;;;11.91;100.00;97805.59;10478419;28;20737;-66
2023/08/07 04:26:18;;;;;;;3.42;2.95;;;11.50;99.90;;;11.87;100.00;97806.22;10479245;28;20586;-66
2023/08/07 04:31:21;;;;;;;5.45;3.13;;;11.50;99.90;;;11.91;100.00;97818.41;10477285;28;20605;-67
2023/08/07 04:36:24;;;;;;;6.45;3.38;;;11.50;99.90;;;11.93;100.00;97819.34;10473588;28;20231;-67
2023/08/07 04:41:29;;;;;;;4.72;3.47;;;11.50;99.90;;;11.96;100.00;97829.78;10476193;28;20277;-66
2023/08/07 04:46:33;;;;;;;4.57;3.03;;;11.60;99.90;;;11.89;100.00;97822.56;10478777;28;20856;-66
2023/08/07 04:51:37;;;;;;;5.07;3.10;;;11.50;99.90;;;11.90;100.00;97831.97;10470717;28;20220;-67
2023/08/07 04:56:44;;;;;;;4.30;3.00;;;11.50;99.90;;;11.89;100.00;97832.81;10473793;28;20739;-67
2023/08/07 05:01:47;;;;;;;4.10;3.20;;;11.50;99.90;;;12.02;100.00;97834.28;10478107;28;20586;-67
2023/08/07 05:06:50;;;;;;;4.43;3.33;;;11.60;99.90;;;11.90;100.00;97837.09;10474594;28;20232;-67
2023/08/07 05:11:54;;;;;;;3.80;3.38;;;11.50;99.90;;;11.86;100.00;97843.75;10479318;28;20227;-67
2023/08/07 05:16:58;;;;;;;7.53;3.60;;;11.50;99.90;;;11.89;100.00;97843.03;10478828;28;20220;-68
2023/08/07 05:22:01;;;;;;;5.07;3.42;;;11.60;99.90;;;11.94;100.00;97854.41;10470577;28;20239;-65
2023/08/07 05:27:07;;;;;;;6.43;3.60;;;11.60;99.90;;;12.06;100.00;97862.72;10481757;28;20231;-67
2023/08/07 05:32:11;;;;;;;6.57;4.35;;;11.70;99.90;;;12.13;100.00;97862.25;10484990;28;20706;-67
2023/08/07 05:37:14;;;;;;;4.90;3.80;;;11.70;99.90;;;12.11;100.00;97851.03;10475901;28;20236;-67
2023/08/07 05:42:19;;;;;;;4.35;3.80;;;11.80;99.90;;;12.23;100.00;97865.25;10466190;28;20234;-65
2023/08/07 05:47:22;;;;;;;4.97;3.30;;;11.80;99.90;;;12.29;100.00;97870.69;10461853;28;20224;-66
2023/08/07 05:52:25;;;;;;;4.85;3.22;;;11.80;99.90;;;12.33;100.00;97877.72;10465407;28;20316;-66
2023/08/07 05:57:30;;;;;;;5.20;3.53;;;11.80;99.90;;;12.36;100.00;97877.88;10443553;28;20246;-66
2023/08/07 06:02:33;;;;;;;4.63;3.38;;;11.90;99.90;;;12.40;100.00;97879.81;10440791;28;20239;-66
2023/08/07 06:07:36;;;;;;;4.40;3.15;;;11.90;99.90;;;12.46;100.00;97877.53;10439290;28;20228;-66
2023/08/07 06:12:40;;;;;;;5.65;3.35;;;12.00;99.90;;;12.51;100.00;97878.66;10435168;28;20240;-67
2023/08/07 06:17:43;;;;;;;6.22;3.72;;;12.00;99.90;;;12.59;100.00;97876.44;10440688;28;20244;-66
2023/08/07 06:22:47;;;;;;;4.63;3.40;;;12.00;99.90;;;12.69;100.00;97883.81;10431624;28;20225;-67
2023/08/07 06:27:51;;;;;;;5.45;3.13;;;12.20;99.90;;;12.82;100.00;97880.19;10421342;28;20854;-67
2023/08/07 06:32:54;;;;;;;5.15;3.15;;;12.30;99.90;;;13.05;100.00;97889.84;10425674;28;20217;-66
2023/08/07 06:37:57;;;;;;;4.20;3.35;;;12.50;99.90;;;13.36;100.00;97885.28;10429090;28;20391;-66
2023/08/07 06:43:02;;;;;;;4.13;2.47;;;12.80;99.90;;;13.59;99.30;97881.22;10422084;28;20223;-65
2023/08/07 06:48:05;;;;;;;4.50;2.75;;;13.20;99.90;;;14.85;95.13;97878.16;10428613;28;20260;-67
2023/08/07 06:53:08;;;;;;;3.42;2.75;;;14.30;99.90;;;15.44;87.96;97877.84;10432776;28;20235;-66
2023/08/07 06:58:13;;;;;;;4.30;2.55;;;14.80;99.90;;;16.33;83.63;97876.84;10425477;28;20347;-66
2023/08/07 07:03:16;;;;;;;4.35;3.20;;;15.60;99.90;;;17.13;80.49;97878.63;10419074;28;20236;-67
2023/08/07 07:08:19;;;;;;;4.00;2.67;;;16.30;99.90;;;17.47;74.98;97886.59;10421982;28;20795;-66
2023/08/07 07:13:24;;;;;;;2.95;2.35;;;16.80;99.90;;;18.07;72.96;97885.78;10429358;28;20217;-67
2023/08/07 07:18:27;;;;;;;3.30;2.20;;;17.20;99.90;;;18.63;64.83;97885.56;10437385;28;20239;-65
2023/08/07 07:23:30;;;;;;;3.47;2.65;;;17.60;99.90;;;18.54;67.31;97893.06;10436806;28;20638;-66
2023/08/07 07:28:35;;;;;;;3.58;2.70;;;17.40;99.90;;;18.73;63.95;97905.66;10440367;28;20513;-67
2023/08/07 07:33:41;;;;;;;4.00;2.35;;;17.60;99.90;;;18.46;62.87;97917.06;10433746;28;20227;-65
2023/08/07 07:38:46;;;;;;;2.45;2.25;;;17.30;99.90;;;18.60;63.16;97924.28;10437689;28;20220;-65
2023/08/07 07:43:50;;;;;;;2.67;2.17;;;17.30;99.90;;;19.57;57.69;97919.78;10443156;28;20221;-67
2023/08/07 07:48:54;;;;;;;2.17;1.98;;;18.00;99.90;;;19.08;58.61;97919.50;10430807;28;20229;-66
2023/08/07 07:53:57;;;;;;;2.35;2.15;;;17.80;99.90;;;18.13;60.22;97926.47;10432490;28;20263;-68
2023/08/07 07:59:18;;;;;;;2.95;1.92;;;16.90;99.90;;;17.38;62.79;97948.34;10442411;28;20235;-69
2023/08/07 08:04:21;;;;;;;2.80;2.33;;;16.10;99.90;;;16.76;62.97;97949.69;10429198;28;20221;-66
2023/08/07 08:09:24;;;;;;;2.88;2.50;;;15.70;99.90;;;16.32;64.26;97943.88;10437026;28;20311;-68
2023/08/07 08:14:29;;;;;;;3.90;2.47;;;15.40;99.90;;;16.26;65.20;97961.72;10433703;28;20225;-67
2023/08/07 08:19:45;;;;;;;4.53;2.53;;;15.40;99.90;;;16.28;67.98;97970.34;10432812;28;20235;-67
2023/08/07 08:24:53;;;;;;;3.35;2.30;;;15.50;99.90;;;16.41;69.39;97967.41;10439263;28;20248;-67
2023/08/07 08:29:57;;;;;;;2.88;2.28;;;15.50;99.90;;;16.37;70.25;97970.72;10432406;28;20236;-67
2023/08/07 08:35:01;;;;;;;3.95;2.75;;;15.50;99.90;;;16.26;68.51;97972.91;10429624;28;20225;-67
2023/08/07 08:40:07;;;;;;;3.05;2.50;;;15.40;99.90;;;16.13;70.98;97971.53;10437652;28;20233;-67
2023/08/07 08:45:15;;;;;;;2.65;2.45;;;15.40;99.90;;;16.13;71.03;97984.44;10435957;28;20241;-67
2023/08/07 08:50:18;;;;;;;2.17;2.00;;;15.30;99.90;;;16.10;70.43;98001.50;10430535;28;20271;-68
2023/08/07 08:55:21;;;;;;;3.13;2.13;;;15.20;99.90;;;16.04;67.36;98004.72;10434245;28;20237;-67
2023/08/07 09:00:27;;;;;;;2.47;2.10;;;15.20;99.90;;;16.24;64.88;98009.75;10438402;28;20232;-67
2023/08/07 09:05:30;;;;;;;3.42;2.40;;;15.40;99.90;;;15.94;64.79;98006.09;10437452;28;20233;-67
2023/08/07 09:10:35;;;;;;;3.42;2.42;;;15.20;99.90;;;15.80;66.84;98008.97;10446731;28;20217;-67
2023/08/07 09:15:40;;;;;;;3.00;2.25;;;15.20;99.90;;;15.97;66.55;98006.22;10445238;28;20668;-67
2023/08/07 09:20:44;;;;;;;3.80;2.42;;;15.30;99.90;;;16.16;68.13;98007.75;10444866;28;20233;-68
2023/08/07 09:25:47;;;;;;;3.33;2.25;;;15.40;99.90;;;16.51;66.37;98003.06;10445639;28;20229;-68
2023/08/07 09:30:53;;;;;;;2.92;2.25;;;15.70;99.90;;;16.55;65.67;97992.00;10439374;28;20240;-68
2023/08/07 09:35:59;;;;;;;2.55;2.15;;;15.80;99.90;;;16.61;65.61;98004.25;10430266;28;20221;-68
2023/08/07 09:41:04;;;;;;;3.63;2.30;;;15.70;99.90;;;16.42;66.68;98007.84;10430349;28;20767;-67
2023/08/07 09:46:09;;;;;;;2.97;2.60;;;15.60;99.90;;;16.27;67.54;98013.34;10427483;28;20311;-68
2023/08/07 09:51:12;;;;;;;2.08;1.90;;;15.50;99.90;;;16.33;67.79;98020.41;10432449;28;21011;-67
2023/08/07 09:56:15;;;;;;;3.10;1.90;;;15.50;99.90;;;16.45;65.13;98031.19;10426630;28;20252;-67
2023/08/07 10:01:21;;;;;;;2.30;2.15;;;15.80;99.90;;;16.71;64.21;98031.25;10430168;28;20276;-68
2023/08/07 10:06:25;;;;;;;2.70;1.98;;;15.90;99.90;;;17.06;63.52;98025.66;10425939;28;20612;-68
2023/08/07 10:11:30;;;;;;;2.30;2.10;;;16.30;99.90;;;17.89;62.95;98017.16;10452921;23;20240;-66
2023/08/07 10:16:39;;;;;;;1.98;1.73;;;17.30;99.90;;;18.29;58.27;98027.00;10434978;28;20853;-67
2023/08/07 10:21:43;;;;;;;2.25;2.00;;;17.70;99.90;;;18.43;55.35;98017.91;10405027;28;20313;-65
2023/08/07 10:26:48;;;;;;;2.97;1.98;;;17.80;99.90;;;18.29;57.23;98026.13;10399000;28;20724;-65
2023/08/07 10:31:54;;;;;;;1.85;1.73;;;17.70;99.90;;;18.24;58.54;98023.41;10398415;28;20254;-66
2023/08/07 10:36:58;;;;;;;2.72;2.38;;;17.60;99.90;;;18.53;59.65;98015.59;10401451;28;20352;-65
2023/08/07 10:42:04;;;;;;;2.70;1.90;;;17.80;99.90;;;19.22;52.86;98010.56;10399611;28;20236;-67
2023/08/07 10:47:08;;;;;;;3.45;1.80;;;18.50;99.90;;;19.39;53.06;98015.31;10398078;28;20232;-67
2023/08/07 10:52:15;;;;;;;2.28;2.10;;;18.60;99.70;;;18.98;53.58;98021.19;10396147;28;20233;-66
2023/08/07 10:57:19;;;;;;;2.35;1.88;;;18.30;99.90;;;19.01;53.25;98022.97;10393914;28;20226;-67
2023/08/07 11:02:30;;;;;;;2.92;2.00;;;18.20;99.50;;;19.07;53.18;98017.97;10394476;28;20241;-66
2023/08/07 11:07:33;;;;;;;4.30;1.90;;;18.40;99.60;;;19.44;51.20;98013.72;10392190;28;20783;-66
2023/08/07 11:12:36;;;;;;;2.72;1.38;;;18.80;97.80;;;19.21;51.17;98024.38;10396254;28;20222;-66
2023/08/07 11:17:41;;;;;;;2.78;2.20;;;18.40;97.80;;;19.24;51.86;98028.75;10396232;28;20226;-67
2023/08/07 11:22:44;;;;;;;2.42;2.05;;;18.50;98.50;;;19.28;52.88;98031.44;10395178;28;20226;-67
2023/08/07 11:27:49;;;;;;;2.10;1.90;;;18.40;99.30;;;19.02;52.32;98045.44;10391808;28;20230;-66
2023/08/07 11:32:53;;;;;;;2.25;1.98;;;18.30;98.40;;;19.07;51.87;98042.16;10377414;28;20225;-67
2023/08/07 11:37:57;;;;;;;3.40;2.00;;;18.20;98.20;;;18.63;52.97;98043.50;10395710;28;20235;-67
2023/08/07 11:43:00;;;;;;;2.20;2.10;;;17.80;99.30;;;18.38;54.51;98050.56;10395104;28;20253;-67
2023/08/07 11:48:05;;;;;;;3.00;2.15;;;17.30;99.90;;;18.29;57.54;98047.69;10391556;28;20238;-68
2023/08/07 11:53:09;;;;;;;3.25;1.90;;;17.30;99.90;;;17.97;57.40;98055.38;10392240;28;20230;-67
2023/08/07 11:58:12;;;;;;;4.05;2.15;;;17.00;99.90;;;17.51;59.21;98059.03;10385297;28;20238;-68
2023/08/07 12:03:30;;;;;;;3.42;2.28;;;16.60;99.90;;;17.46;58.90;98070.06;10386291;28;20237;-66
2023/08/07 12:08:34;;;;;;;2.20;2.00;;;16.60;99.90;;;17.62;62.07;98067.13;10385910;28;20318;-67
2023/08/07 12:13:39;;;;;;;5.07;2.47;;;16.80;99.90;;;17.81;60.63;98073.81;10388349;28;20714;-67
2023/08/07 12:18:47;;;;;;;2.78;2.30;;;17.00;99.90;;;17.91;60.93;98070.69;10378469;28;20232;-68
2023/08/07 12:23:52;;;;;;;2.75;2.10;;;17.10;99.90;;;18.17;59.34;98073.19;10380679;28;20248;-68
2023/08/07 12:28:55;;;;;;;2.88;2.30;;;17.40;99.90;;;18.53;56.39;98073.41;10389688;28;20253;-66
2023/08/07 12:34:02;;;;;;;3.70;2.22;;;17.60;99.90;;;18.79;57.35;98083.69;10396841;28;20225;-68
2023/08/07 12:39:08;;;;;;;2.40;2.08;;;17.90;99.90;;;18.41;60.62;98084.28;10379562;28;20254;-68
2023/08/07 12:44:12;;;;;;;2.60;2.40;;;17.30;99.90;;;18.03;60.96;98090.91;10365986;28;20245;-66
2023/08/07 12:49:19;;;;;;;2.75;2.50;;;17.10;99.90;;;17.84;62.53;98083.38;10374645;28;20225;-66
2023/08/07 12:54:22;;;;;;;2.78;2.33;;;17.00;99.90;;;18.06;61.45;98091.00;10363999;28;20237;-67
2023/08/07 12:59:25;;;;;;;2.55;2.25;;;17.20;99.90;;;18.32;61.64;98104.72;10369145;28;20238;-67
2023/08/07 13:04:30;;;;;;;2.80;2.60;;;17.50;99.90;;;18.89;58.43;98099.53;10370313;28;20308;-67
2023/08/07 13:09:33;;;;;;;2.17;2.00;;;18.10;99.90;;;19.17;57.53;98110.63;10369858;28;20234;-68
2023/08/07 13:14:36;;;;;;;2.80;2.55;;;18.40;99.90;;;19.30;55.33;98098.91;10367287;28;20226;-67
2023/08/07 13:19:40;;;;;;;2.70;2.30;;;18.40;99.90;;;18.70;60.22;98120.50;10364428;28;20237;-67
2023/08/07 13:24:44;;;;;;;2.47;2.27;;;17.90;99.90;;;17.94;65.54;98117.34;10367078;28;20234;-66
2023/08/07 13:29:48;;;;;;;2.92;2.67;;;17.20;99.90;;;17.85;66.72;98121.31;10368665;28;20226;-66
2023/08/07 13:34:52;;;;;;;3.22;2.28;;;17.20;99.90;;;17.96;67.83;98125.13;10361618;28;20244;-67
2023/08/07 13:39:55;;;;;;;2.80;2.58;;;17.30;99.90;;;18.09;66.84;98124.72;10359244;28;20232;-69
2023/08/07 13:44:59;;;;;;;2.88;2.22;;;17.40;99.90;;;18.15;66.32;98131.78;10346823;28;20493;-68
2023/08/07 13:50:06;;;;;;;3.35;2.20;;;17.50;99.90;;;18.19;70.15;98133.63;10360091;28;20225;-71
2023/08/07 13:55:10;;;;;;;2.30;2.20;;;17.60;99.90;;;18.16;68.10;98139.59;10363105;28;20337;-68
2023/08/07 14:00:14;;;;;;;2.65;2.45;;;17.80;99.90;;;18.41;71.21;98128.28;10362690;28;20257;-68
2023/08/07 14:05:19;;;;;;;3.22;2.92;;;17.90;99.90;;;18.44;70.87;98130.09;10346359;28;20237;-65
2023/08/07 14:10:22;;;;;;;3.30;2.63;;;17.90;99.90;;;18.38;71.82;98128.19;10344030;28;20234;-64
2023/08/07 14:15:25;;;;;;;2.78;2.58;;;17.70;99.90;;;18.31;71.00;98128.81;10343804;28;20731;-66
2023/08/07 14:20:30;;;;;;;3.13;2.53;;;17.60;99.90;;;18.46;67.64;98124.13;10345138;28;20233;-67
2023/08/07 14:25:33;;;;;;;3.25;2.50;;;17.60;99.90;;;18.52;64.53;98132.94;10374404;28;20593;-67
2023/08/07 14:30:36;;;;;;;3.03;2.55;;;17.60;99.90;;;18.59;64.81;98117.59;10345403;28;20226;-66
2023/08/07 14:35:41;;;;;;;4.28;2.65;;;17.70;99.90;;;18.71;64.32;98118.78;10342644;28;20226;-69
2023/08/07 14:40:44;;;;;;;2.65;2.50;;;17.80;99.90;;;18.61;62.67;98122.84;10340910;28;20222;-68
2023/08/07 14:45:47;;;;;;;2.80;2.60;;;17.80;99.90;;;18.40;64.19;98113.59;10335272;28;20226;-68
2023/08/07 14:50:52;;;;;;;3.00;2.80;;;17.50;99.90;;;18.47;66.09;98112.06;10334204;28;20632;-71
2023/08/07 14:55:56;;;;;;;3.60;2.65;;;17.60;99.90;;;18.57;65.14;98120.97;10340320;28;20749;-68
2023/08/07 15:00:59;;;;;;;3.10;2.80;;;17.70;99.90;;;18.66;62.64;98116.09;10349134;28;20226;-71
2023/08/07 15:06:04;;;;;;;2.78;2.47;;;17.80;99.90;;;18.54;63.58;98108.84;10333849;28;20714;-68
2023/08/07 15:11:08;;;;;;;2.80;2.60;;;17.70;99.90;;;18.63;61.05;98119.47;10342360;28;20284;-70
2023/08/07 15:16:11;;;;;;;4.80;3.90;;;17.90;99.90;;;18.42;63.53;98106.75;10334183;28;20237;-71
2023/08/07 15:21:15;;;;;;;4.53;4.13;;;17.50;99.90;;;18.37;63.03;98105.75;10336498;28;20245;-69
2023/08/07 15:26:19;;;;;;;3.17;2.92;;;17.50;99.90;;;18.40;63.11;98102.38;10335764;28;20230;-70
2023/08/07 15:31:22;;;;;;;2.72;2.53;;;17.50;99.90;;;18.37;63.67;98100.56;10338323;28;20373;-68
2023/08/07 15:36:26;;;;;;;2.97;2.67;;;17.40;99.90;;;18.67;62.15;98105.75;10334998;28;20241;-69
2023/08/07 15:41:30;;;;;;;3.47;2.53;;;17.80;99.90;;;18.62;62.38;98106.47;10335119;28;20345;-70
2023/08/07 15:46:33;;;;;;;3.00;2.80;;;17.60;99.90;;;18.38;65.28;98107.50;10332801;28;20227;-70
2023/08/07 15:51:37;;;;;;;2.70;2.50;;;17.40;99.90;;;18.31;66.67;98107.25;10335741;28;20238;-70
2023/08/07 15:56:41;;;;;;;2.60;2.40;;;17.20;99.90;;;17.91;71.94;98132.78;10333682;28;20230;-67
2023/08/07 16:01:44;;;;;;;2.80;2.60;;;17.10;99.90;;;17.36;76.90;98133.44;10348242;28;20237;-69
2023/08/07 16:06:49;;;;;;;3.60;3.15;;;16.70;99.90;;;16.93;82.67;98131.03;10356991;28;20233;-66
2023/08/07 16:11:52;;;;;;;3.80;3.40;;;16.40;99.90;;;16.73;84.27;98125.13;10356628;28;20288;-70
2023/08/07 16:16:55;;;;;;;3.30;3.10;;;16.20;99.90;;;16.77;87.76;98111.53;10365372;28;20256;-68
2023/08/07 16:22:01;;;;;;;3.70;3.40;;;16.30;99.90;;;16.89;85.97;98112.88;10356780;28;20241;-71
2023/08/07 16:27:05;;;;;;;3.92;2.95;;;16.30;99.90;;;16.83;88.58;98112.66;10357180;28;20242;-68
2023/08/07 16:32:08;;;;;;;3.58;3.28;;;16.30;99.90;;;16.82;89.34;98112.56;10361747;28;20234;-68
2023/08/07 16:37:13;;;;;;;3.97;3.53;;;16.30;99.90;;;16.67;90.58;98106.00;10357196;28;20230;-69
2023/08/07 16:42:16;;;;;;;3.15;2.95;;;16.20;99.90;;;16.57;90.02;98103.91;10358198;28;20308;-70
2023/08/07 16:47:20;;;;;;;3.63;3.30;;;16.10;99.90;;;16.57;89.75;98101.31;10358902;28;20241;-70
2023/08/07 16:52:26;;;;;;;3.97;3.40;;;16.10;99.90;;;16.61;89.17;98089.41;10359980;28;20227;-68
2023/08/07 16:57:29;;;;;;;4.20;3.58;;;16.20;99.90;;;16.67;90.74;98100.81;10359023;28;20820;-68
2023/08/07 17:02:32;;;;;;;4.15;3.67;;;16.20;99.90;;;16.60;90.67;98093.69;10362755;28;20232;-68
2023/08/07 17:07:37;;;;;;;3.78;3.47;;;16.10;99.90;;;16.58;89.68;98090.19;10362625;28;20637;-68
2023/08/07 17:12:42;;;;;;;3.53;3.20;;;16.10;99.90;;;16.46;85.66;98097.47;10369267;28;20244;-68
2023/08/07 17:17:45;;;;;;;3.20;3.00;;;16.00;99.90;;;16.45;84.52;98100.84;10357974;28;20222;-69
2023/08/07 17:22:50;;;;;;;3.47;3.28;;;16.00;99.90;;;16.31;81.76;98092.59;10356291;28;20264;-68
2023/08/07 17:27:53;;;;;;;3.03;2.72;;;15.90;99.90;;;16.30;80.44;98097.69;10368224;28;20226;-69
2023/08/07 17:32:56;;;;;;;2.90;2.70;;;15.80;99.90;;;16.23;80.54;98100.88;10365736;28;20218;-68
2023/08/07 17:38:01;;;;;;;3.55;3.25;;;15.80;99.90;;;16.16;79.80;98099.75;10356624;28;20230;-69
2023/08/07 17:43:04;;;;;;;4.43;3.15;;;15.70;99.90;;;16.10;80.32;98105.53;10363812;28;20222;-69
2023/08/07 17:48:08;;;;;;;3.63;3.33;;;15.60;99.90;;;16.09;81.74;98108.94;10360330;28;20239;-69
2023/08/07 17:53:13;;;;;;;3.55;3.25;;;15.60;99.90;;;16.08;83.35;98114.94;10351361;28;20723;-68
2023/08/07 17:58:16;;;;;;;4.70;3.90;;;15.50;99.90;;;16.03;84.38;98113.88;10357656;28;20237;-69
2023/08/07 18:03:19;;;;;;;4.47;4.10;;;15.40;99.90;;;16.00;85.29;98111.16;10358882;28;20231;-68
2023/08/07 18:08:23;;;;;;;3.90;3.70;;;15.40;99.90;;;15.98;86.96;98117.94;10358448;28;20234;-68
2023/08/07 18:13:26;;;;;;;3.92;3.63;;;15.30;99.90;;;15.92;87.99;98120.28;10359953;28;20229;-68
2023/08/07 18:18:29;;;;;;;4.18;3.50;;;15.30;99.90;;;15.80;89.84;98109.50;10356059;28;20226;-68
2023/08/07 18:23:34;;;;;;;3.90;3.60;;;15.10;99.90;;;15.62;91.09;98130.19;10356663;28;20226;-68
2023/08/07 18:28:38;;;;;;;3.50;3.20;;;15.00;99.90;;;15.59;91.45;98128.34;10357441;28;20226;-69
2023/08/07 18:33:41;;;;;;;3.90;3.60;;;14.90;99.90;;;15.45;90.97;98129.47;10360367;28;20230;-69
2023/08/07 18:38:45;;;;;;;3.65;3.40;;;14.70;99.90;;;15.35;91.72;98142.78;10360553;28;20321;-68
2023/08/07 18:43:48;;;;;;;3.80;3.50;;;14.60;99.90;;;15.19;90.90;98147.25;10359674;28;20222;-69
2023/08/07 18:48:52;;;;;;;4.35;3.85;;;14.50;99.90;;;15.13;91.52;98154.72;10353588;28;20230;-69
2023/08/07 18:53:57;;;;;;;3.67;3.38;;;14.40;99.90;;;14.97;92.66;98163.47;10355763;28;20248;-68
2023/08/07 18:59:03;;;;;;;4.32;3.28;;;14.20;99.90;;;14.86;92.20;98159.53;10361516;28;20799;-69
2023/08/07 19:04:06;;;;;;;4.20;3.88;;;14.10;99.90;;;14.74;93.28;98162.44;10358577;28;20234;-70
2023/08/07 19:09:11;;;;;;;4.57;3.97;;;14.00;99.90;;;14.57;93.76;98171.09;10360191;28;20268;-69
2023/08/07 19:14:14;;;;;;;4.00;3.70;;;13.80;99.90;;;14.46;93.61;98172.25;10350417;28;20230;-70
2023/08/07 19:19:17;;;;;;;3.97;3.55;;;13.60;99.90;;;14.25;93.91;98170.41;10351259;28;20227;-70
2023/08/07 19:24:21;;;;;;;4.45;4.07;;;13.50;99.90;;;14.13;94.41;98177.53;10352025;28;20261;-71
2023/08/07 19:29:25;;;;;;;5.07;3.55;;;13.40;99.90;;;13.95;94.28;98180.09;10349482;28;20242;-70
2023/08/07 19:34:28;;;;;;;3.60;3.30;;;13.20;99.90;;;13.79;94.65;98182.69;10348842;28;20713;-69
2023/08/07 19:39:32;;;;;;;5.00;4.57;;;13.10;99.90;;;13.73;94.72;98184.19;10360521;28;20229;-70
2023/08/07 19:44:35;;;;;;;4.82;4.50;;;13.00;99.90;;;13.57;95.65;98179.06;10350430;28;20647;-68
2023/08/07 19:49:38;;;;;;;4.05;3.75;;;12.90;99.90;;;13.47;96.47;98190.56;10352875;28;20226;-69
2023/08/07 19:54:45;;;;;;;5.10;4.70;;;12.70;99.90;;;13.40;97.19;98185.03;10347095;28;20230;-68
2023/08/07 19:59:48;;;;;;;4.60;4.20;;;12.60;99.90;;;13.29;97.18;98197.31;10355450;28;20376;-69
2023/08/07 20:04:52;;;;;;;5.22;4.72;;;12.60;99.90;;;13.31;97.58;98200.00;10345397;28;20409;-70
2023/08/07 20:09:57;;;;;;;4.75;4.45;;;12.50;99.90;;;13.19;99.04;98183.09;10358170;28;20226;-69
2023/08/07 20:15:00;;;;;;;4.07;3.78;;;12.40;99.90;;;13.01;98.68;98179.56;10346677;28;20567;-69
2023/08/07 20:20:04;;;;;;;3.72;3.42;;;12.30;99.90;;;12.75;98.69;98191.88;10354029;28;20690;-69
2023/08/07 20:25:09;;;;;;;4.18;3.80;;;12.10;99.90;;;12.76;99.48;98182.50;10356233;28;20234;-70
2023/08/07 20:30:13;;;;;;;3.72;3.50;;;12.10;99.90;;;12.75;100.00;98180.75;10356207;28;20240;-69
2023/08/07 20:35:16;;;;;;;5.22;4.82;;;12.00;99.90;;;12.75;99.57;98183.31;10350030;28;20254;-69
2023/08/07 20:40:21;;;;;;;5.35;4.85;;;12.00;99.90;;;12.68;100.00;98179.56;10352461;28;20241;-70
2023/08/07 20:45:24;;;;;;;5.57;4.88;;;12.00;99.90;;;12.68;100.00;98184.69;10355060;28;20426;-69
2023/08/07 20:50:27;;;;;;;5.35;4.82;;;11.90;99.90;;;12.64;100.00;98180.16;10354690;28;20244;-69
2023/08/07 20:55:31;;;;;;;4.22;3.92;;;11.90;99.90;;;12.59;100.00;98179.94;10361401;28;20709;-70
2023/08/07 21:00:34;;;;;;;6.05;4.30;;;11.90;99.90;;;12.57;100.00;98181.53;10366698;28;20721;-69